sensor_id;sensor_type;location;lat;lon;timestamp;temperature;humidity
12309;DHT22;6217;48.150;17.142;2022-12-07T00:02:07;7.30;94.50
12309;DHT22;6217;48.150;17.142;2022-12-07T00:06:15;7.20;94.50
12309;DHT22;6217;48.150;17.142;2022-12-07T00:10:21;7.20;94.50
12309;DHT22;6217;48.150;17.142;2022-12-07T00:14:26;7.20;94.40
12309;DHT22;6217;48.150;17.142;2022-12-07T00:18:32;7.30;94.50
12309;DHT22;6217;48.150;17.142;2022-12-07T00:22:38;7.40;94.50
12309;DHT22;6217;48.150;17.142;2022-12-07T00:26:44;7.50;94.40
12309;DHT22;6217;48.150;17.142;2022-12-07T00:30:50;7.50;94.40
12309;DHT22;6217;48.150;17.142;2022-12-07T00:34:56;7.40;94.70
12309;DHT22;6217;48.150;17.142;2022-12-07T00:39:02;7.50;94.40
12309;DHT22;6217;48.150;17.142;2022-12-07T00:43:08;7.50;94.30
12309;DHT22;6217;48.150;17.142;2022-12-07T00:47:14;7.40;94.40
12309;DHT22;6217;48.150;17.142;2022-12-07T00:51:22;7.40;94.40
12309;DHT22;6217;48.150;17.142;2022-12-07T00:55:32;7.50;94.30
12309;DHT22;6217;48.150;17.142;2022-12-07T00:59:37;7.50;94.30
12309;DHT22;6217;48.150;17.142;2022-12-07T01:03:43;7.40;94.30
12309;DHT22;6217;48.150;17.142;2022-12-07T01:07:49;7.40;94.40
12309;DHT22;6217;48.150;17.142;2022-12-07T01:11:55;7.40;94.40
12309;DHT22;6217;48.150;17.142;2022-12-07T01:16:03;7.40;94.50
12309;DHT22;6217;48.150;17.142;2022-12-07T01:20:09;7.30;94.50
12309;DHT22;6217;48.150;17.142;2022-12-07T01:24:15;7.30;94.40
12309;DHT22;6217;48.150;17.142;2022-12-07T01:28:21;7.40;94.50
12309;DHT22;6217;48.150;17.142;2022-12-07T01:32:27;7.30;94.50
12309;DHT22;6217;48.150;17.142;2022-12-07T01:36:34;7.30;94.50
12309;DHT22;6217;48.150;17.142;2022-12-07T01:40:40;7.30;94.50
12309;DHT22;6217;48.150;17.142;2022-12-07T01:49:45;7.30;94.50
12309;DHT22;6217;48.150;17.142;2022-12-07T01:53:52;7.30;94.40
12309;DHT22;6217;48.150;17.142;2022-12-07T01:57:58;7.30;94.30
12309;DHT22;6217;48.150;17.142;2022-12-07T02:02:10;7.30;94.30
12309;DHT22;6217;48.150;17.142;2022-12-07T02:06:22;7.30;94.40
12309;DHT22;6217;48.150;17.142;2022-12-07T02:10:30;7.30;94.70
12309;DHT22;6217;48.150;17.142;2022-12-07T02:14:37;7.30;94.30
12309;DHT22;6217;48.150;17.142;2022-12-07T02:23:19;7.20;94.40
12309;DHT22;6217;48.150;17.142;2022-12-07T02:27:37;7.20;94.30
12309;DHT22;6217;48.150;17.142;2022-12-07T02:31:49;7.20;94.30
12309;DHT22;6217;48.150;17.142;2022-12-07T02:36:06;7.20;94.30
12309;DHT22;6217;48.150;17.142;2022-12-07T02:44:38;7.10;94.40
12309;DHT22;6217;48.150;17.142;2022-12-07T02:48:45;7.10;94.40
12309;DHT22;6217;48.150;17.142;2022-12-07T02:52:52;7.00;94.40
12309;DHT22;6217;48.150;17.142;2022-12-07T02:57:08;7.00;94.30
12309;DHT22;6217;48.150;17.142;2022-12-07T03:01:39;7.00;94.20
12309;DHT22;6217;48.150;17.142;2022-12-07T03:10:24;6.70;94.50
12309;DHT22;6217;48.150;17.142;2022-12-07T03:14:40;6.80;94.60
12309;DHT22;6217;48.150;17.142;2022-12-07T03:18:59;6.80;94.60
12309;DHT22;6217;48.150;17.142;2022-12-07T03:23:07;6.90;94.60
12309;DHT22;6217;48.150;17.142;2022-12-07T03:27:37;7.00;94.60
12309;DHT22;6217;48.150;17.142;2022-12-07T03:32:05;7.10;94.60
12309;DHT22;6217;48.150;17.142;2022-12-07T03:40:37;7.10;94.40
12309;DHT22;6217;48.150;17.142;2022-12-07T03:44:44;7.00;94.60
12309;DHT22;6217;48.150;17.142;2022-12-07T03:48:59;7.10;94.60
12309;DHT22;6217;48.150;17.142;2022-12-07T03:53:13;7.10;94.60
12309;DHT22;6217;48.150;17.142;2022-12-07T03:57:21;7.10;94.70
12309;DHT22;6217;48.150;17.142;2022-12-07T04:01:28;7.20;94.70
12309;DHT22;6217;48.150;17.142;2022-12-07T04:05:33;7.20;94.70
12309;DHT22;6217;48.150;17.142;2022-12-07T04:09:40;7.30;94.60
12309;DHT22;6217;48.150;17.142;2022-12-07T04:13:46;7.30;94.70
12309;DHT22;6217;48.150;17.142;2022-12-07T04:18:10;7.30;94.60
12309;DHT22;6217;48.150;17.142;2022-12-07T04:22:16;7.30;94.50
12309;DHT22;6217;48.150;17.142;2022-12-07T04:26:22;7.30;94.70
12309;DHT22;6217;48.150;17.142;2022-12-07T04:30:28;7.30;94.60
12309;DHT22;6217;48.150;17.142;2022-12-07T04:34:34;7.40;94.70
12309;DHT22;6217;48.150;17.142;2022-12-07T04:38:39;7.30;94.80
12309;DHT22;6217;48.150;17.142;2022-12-07T04:42:45;7.40;94.80
12309;DHT22;6217;48.150;17.142;2022-12-07T04:46:52;7.50;94.60
12309;DHT22;6217;48.150;17.142;2022-12-07T04:50:58;7.40;94.50
12309;DHT22;6217;48.150;17.142;2022-12-07T04:55:03;7.40;94.70
12309;DHT22;6217;48.150;17.142;2022-12-07T04:59:11;7.40;94.70
12309;DHT22;6217;48.150;17.142;2022-12-07T05:03:17;7.40;94.50
12309;DHT22;6217;48.150;17.142;2022-12-07T05:07:23;7.40;94.50
12309;DHT22;6217;48.150;17.142;2022-12-07T05:11:28;7.40;94.60
12309;DHT22;6217;48.150;17.142;2022-12-07T05:15:43;7.40;94.60
12309;DHT22;6217;48.150;17.142;2022-12-07T05:19:49;7.40;94.70
12309;DHT22;6217;48.150;17.142;2022-12-07T05:23:55;7.40;94.60
12309;DHT22;6217;48.150;17.142;2022-12-07T05:28:01;7.40;94.60
12309;DHT22;6217;48.150;17.142;2022-12-07T05:32:07;7.40;94.50
12309;DHT22;6217;48.150;17.142;2022-12-07T05:36:12;7.40;94.50
12309;DHT22;6217;48.150;17.142;2022-12-07T05:40:18;7.40;94.60
12309;DHT22;6217;48.150;17.142;2022-12-07T05:44:24;7.30;94.60
12309;DHT22;6217;48.150;17.142;2022-12-07T05:48:30;7.40;94.60
12309;DHT22;6217;48.150;17.142;2022-12-07T05:52:36;7.30;94.50
12309;DHT22;6217;48.150;17.142;2022-12-07T05:56:41;7.30;94.60
12309;DHT22;6217;48.150;17.142;2022-12-07T06:00:47;7.30;94.70
12309;DHT22;6217;48.150;17.142;2022-12-07T06:04:53;7.40;94.60
12309;DHT22;6217;48.150;17.142;2022-12-07T06:08:59;7.30;94.60
12309;DHT22;6217;48.150;17.142;2022-12-07T06:13:04;7.40;94.60
12309;DHT22;6217;48.150;17.142;2022-12-07T06:17:11;7.30;94.60
12309;DHT22;6217;48.150;17.142;2022-12-07T06:21:17;7.20;94.70
12309;DHT22;6217;48.150;17.142;2022-12-07T06:25:23;7.20;94.70
12309;DHT22;6217;48.150;17.142;2022-12-07T06:29:29;7.30;94.70
12309;DHT22;6217;48.150;17.142;2022-12-07T06:33:35;7.30;94.70
12309;DHT22;6217;48.150;17.142;2022-12-07T06:37:41;7.30;94.60
12309;DHT22;6217;48.150;17.142;2022-12-07T06:41:46;7.30;94.60
12309;DHT22;6217;48.150;17.142;2022-12-07T06:45:52;7.30;94.60
12309;DHT22;6217;48.150;17.142;2022-12-07T06:49:58;7.40;94.50
12309;DHT22;6217;48.150;17.142;2022-12-07T06:54:04;7.50;94.60
12309;DHT22;6217;48.150;17.142;2022-12-07T06:58:10;7.60;94.40
12309;DHT22;6217;48.150;17.142;2022-12-07T07:02:16;7.60;94.30
12309;DHT22;6217;48.150;17.142;2022-12-07T07:06:22;7.60;94.20
12309;DHT22;6217;48.150;17.142;2022-12-07T07:10:28;7.60;94.30
12309;DHT22;6217;48.150;17.142;2022-12-07T07:14:33;7.70;94.30
12309;DHT22;6217;48.150;17.142;2022-12-07T07:18:39;7.70;94.10
12309;DHT22;6217;48.150;17.142;2022-12-07T07:22:45;7.80;94.00
12309;DHT22;6217;48.150;17.142;2022-12-07T07:26:51;8.00;93.80
12309;DHT22;6217;48.150;17.142;2022-12-07T07:30:57;8.00;93.80
12309;DHT22;6217;48.150;17.142;2022-12-07T07:35:03;8.00;93.80
12309;DHT22;6217;48.150;17.142;2022-12-07T07:39:10;8.10;93.70
12309;DHT22;6217;48.150;17.142;2022-12-07T07:43:18;8.10;93.60
12309;DHT22;6217;48.150;17.142;2022-12-07T07:47:24;8.20;93.60
12309;DHT22;6217;48.150;17.142;2022-12-07T07:51:29;8.20;93.50
12309;DHT22;6217;48.150;17.142;2022-12-07T07:55:35;8.30;93.50
12309;DHT22;6217;48.150;17.142;2022-12-07T07:59:41;8.20;93.40
12309;DHT22;6217;48.150;17.142;2022-12-07T08:03:47;8.20;93.40
12309;DHT22;6217;48.150;17.142;2022-12-07T08:07:52;8.20;93.50
12309;DHT22;6217;48.150;17.142;2022-12-07T08:11:58;8.20;93.50
12309;DHT22;6217;48.150;17.142;2022-12-07T08:16:06;8.30;93.50
12309;DHT22;6217;48.150;17.142;2022-12-07T08:20:12;8.30;93.40
12309;DHT22;6217;48.150;17.142;2022-12-07T08:24:18;8.30;93.40
12309;DHT22;6217;48.150;17.142;2022-12-07T08:28:24;8.30;93.30
12309;DHT22;6217;48.150;17.142;2022-12-07T08:32:29;8.30;93.30
12309;DHT22;6217;48.150;17.142;2022-12-07T08:36:36;8.30;93.40
12309;DHT22;6217;48.150;17.142;2022-12-07T08:40:42;8.40;93.70
12309;DHT22;6217;48.150;17.142;2022-12-07T08:44:47;8.40;93.30
12309;DHT22;6217;48.150;17.142;2022-12-07T08:49:02;8.30;93.30
12309;DHT22;6217;48.150;17.142;2022-12-07T08:53:09;8.40;93.20
12309;DHT22;6217;48.150;17.142;2022-12-07T08:57:14;8.40;93.20
12309;DHT22;6217;48.150;17.142;2022-12-07T09:01:20;8.40;93.20
12309;DHT22;6217;48.150;17.142;2022-12-07T09:05:26;8.50;93.30
12309;DHT22;6217;48.150;17.142;2022-12-07T09:09:32;8.40;93.20
12309;DHT22;6217;48.150;17.142;2022-12-07T09:13:38;8.40;93.40
12309;DHT22;6217;48.150;17.142;2022-12-07T09:17:44;8.50;93.30
12309;DHT22;6217;48.150;17.142;2022-12-07T09:21:49;8.50;93.40
12309;DHT22;6217;48.150;17.142;2022-12-07T09:25:59;8.60;93.40
12309;DHT22;6217;48.150;17.142;2022-12-07T09:30:07;8.80;93.20
12309;DHT22;6217;48.150;17.142;2022-12-07T09:34:12;8.90;93.00
12309;DHT22;6217;48.150;17.142;2022-12-07T09:38:19;8.70;93.10
12309;DHT22;6217;48.150;17.142;2022-12-07T09:42:29;8.70;93.10
12309;DHT22;6217;48.150;17.142;2022-12-07T09:46:38;8.70;93.10
12309;DHT22;6217;48.150;17.142;2022-12-07T09:50:44;8.80;93.10
12309;DHT22;6217;48.150;17.142;2022-12-07T09:54:50;9.00;93.00
12309;DHT22;6217;48.150;17.142;2022-12-07T09:59:01;9.10;92.60
12309;DHT22;6217;48.150;17.142;2022-12-07T10:03:10;9.10;92.40
12309;DHT22;6217;48.150;17.142;2022-12-07T10:07:17;9.10;92.50
12309;DHT22;6217;48.150;17.142;2022-12-07T10:11:22;9.30;92.60
12309;DHT22;6217;48.150;17.142;2022-12-07T10:19:50;9.80;91.90
12309;DHT22;6217;48.150;17.142;2022-12-07T10:24:02;9.90;91.70
12309;DHT22;6217;48.150;17.142;2022-12-07T10:28:16;9.80;91.50
12309;DHT22;6217;48.150;17.142;2022-12-07T10:32:34;9.50;91.30
12309;DHT22;6217;48.150;17.142;2022-12-07T10:36:40;9.90;91.10
12309;DHT22;6217;48.150;17.142;2022-12-07T10:40:46;10.10;90.70
12309;DHT22;6217;48.150;17.142;2022-12-07T10:45:16;10.00;90.00
12309;DHT22;6217;48.150;17.142;2022-12-07T10:58:11;9.80;90.00
12309;DHT22;6217;48.150;17.142;2022-12-07T11:02:37;9.70;89.20
12309;DHT22;6217;48.150;17.142;2022-12-07T11:07:07;9.50;88.40
12309;DHT22;6217;48.150;17.142;2022-12-07T11:11:42;9.50;87.80
12309;DHT22;6217;48.150;17.142;2022-12-07T11:16:14;9.50;87.40
12309;DHT22;6217;48.150;17.142;2022-12-07T11:25:50;9.40;87.40
12309;DHT22;6217;48.150;17.142;2022-12-07T11:35:08;9.40;86.50
12309;DHT22;6217;48.150;17.142;2022-12-07T11:39:35;9.40;86.20
12309;DHT22;6217;48.150;17.142;2022-12-07T11:43:56;9.20;85.60
12309;DHT22;6217;48.150;17.142;2022-12-07T11:48:28;9.10;85.90
12309;DHT22;6217;48.150;17.142;2022-12-07T11:52:45;9.10;86.50
12309;DHT22;6217;48.150;17.142;2022-12-07T11:56:54;9.10;86.30
12309;DHT22;6217;48.150;17.142;2022-12-07T12:05:24;9.00;85.30
12309;DHT22;6217;48.150;17.142;2022-12-07T12:09:41;9.00;85.70
12309;DHT22;6217;48.150;17.142;2022-12-07T12:14:24;8.90;85.10
12309;DHT22;6217;48.150;17.142;2022-12-07T12:19:01;8.90;84.50
12309;DHT22;6217;48.150;17.142;2022-12-07T12:23:22;8.80;84.20
12309;DHT22;6217;48.150;17.142;2022-12-07T12:27:33;8.70;84.20
12309;DHT22;6217;48.150;17.142;2022-12-07T12:31:40;8.70;83.80
12309;DHT22;6217;48.150;17.142;2022-12-07T12:48:37;8.70;82.90
12309;DHT22;6217;48.150;17.142;2022-12-07T12:57:15;8.80;82.30
12309;DHT22;6217;48.150;17.142;2022-12-07T13:01:41;8.90;82.20
12309;DHT22;6217;48.150;17.142;2022-12-07T13:05:47;8.90;81.90
12309;DHT22;6217;48.150;17.142;2022-12-07T13:09:53;8.70;82.40
12309;DHT22;6217;48.150;17.142;2022-12-07T13:18:42;8.50;80.90
12309;DHT22;6217;48.150;17.142;2022-12-07T13:22:49;8.30;80.90
12309;DHT22;6217;48.150;17.142;2022-12-07T13:26:55;8.30;80.90
12309;DHT22;6217;48.150;17.142;2022-12-07T13:35:34;8.20;80.40
12309;DHT22;6217;48.150;17.142;2022-12-07T13:39:49;8.10;80.30
12309;DHT22;6217;48.150;17.142;2022-12-07T13:44:13;8.10;80.40
12309;DHT22;6217;48.150;17.142;2022-12-07T13:48:35;8.10;80.50
12309;DHT22;6217;48.150;17.142;2022-12-07T13:52:44;8.10;80.60
12309;DHT22;6217;48.150;17.142;2022-12-07T13:56:52;8.20;80.50
12309;DHT22;6217;48.150;17.142;2022-12-07T14:00:59;8.10;80.40
12309;DHT22;6217;48.150;17.142;2022-12-07T14:05:23;8.10;80.40
12309;DHT22;6217;48.150;17.142;2022-12-07T14:09:29;8.00;80.30
12309;DHT22;6217;48.150;17.142;2022-12-07T14:17:54;8.00;80.60
12309;DHT22;6217;48.150;17.142;2022-12-07T14:22:08;8.00;80.90
12309;DHT22;6217;48.150;17.142;2022-12-07T14:26:18;8.00;80.90
12309;DHT22;6217;48.150;17.142;2022-12-07T14:30:29;8.00;81.10
12309;DHT22;6217;48.150;17.142;2022-12-07T14:34:35;7.80;80.90
12309;DHT22;6217;48.150;17.142;2022-12-07T14:38:41;7.80;81.80
12309;DHT22;6217;48.150;17.142;2022-12-07T14:42:53;7.80;81.20
12309;DHT22;6217;48.150;17.142;2022-12-07T14:47:00;7.80;81.00
12309;DHT22;6217;48.150;17.142;2022-12-07T14:51:07;7.70;81.30
12309;DHT22;6217;48.150;17.142;2022-12-07T14:55:28;7.60;81.30
12309;DHT22;6217;48.150;17.142;2022-12-07T14:59:34;7.50;81.60
12309;DHT22;6217;48.150;17.142;2022-12-07T15:03:41;7.50;81.80
12309;DHT22;6217;48.150;17.142;2022-12-07T15:07:48;7.40;82.00
12309;DHT22;6217;48.150;17.142;2022-12-07T15:11:54;7.40;82.10
12309;DHT22;6217;48.150;17.142;2022-12-07T15:16:00;7.30;82.10
12309;DHT22;6217;48.150;17.142;2022-12-07T15:20:14;7.20;82.20
12309;DHT22;6217;48.150;17.142;2022-12-07T15:24:20;7.20;82.50
12309;DHT22;6217;48.150;17.142;2022-12-07T15:28:26;7.10;82.50
12309;DHT22;6217;48.150;17.142;2022-12-07T15:32:32;7.10;82.70
12309;DHT22;6217;48.150;17.142;2022-12-07T15:36:37;7.10;82.80
12309;DHT22;6217;48.150;17.142;2022-12-07T15:40:46;7.10;83.00
12309;DHT22;6217;48.150;17.142;2022-12-07T15:44:52;7.00;82.90
12309;DHT22;6217;48.150;17.142;2022-12-07T15:49:17;7.10;83.20
12309;DHT22;6217;48.150;17.142;2022-12-07T15:53:23;7.00;83.20
12309;DHT22;6217;48.150;17.142;2022-12-07T15:57:30;7.00;83.30
12309;DHT22;6217;48.150;17.142;2022-12-07T16:01:36;7.10;83.30
12309;DHT22;6217;48.150;17.142;2022-12-07T16:05:41;7.30;83.30
12309;DHT22;6217;48.150;17.142;2022-12-07T16:09:47;7.20;83.10
12309;DHT22;6217;48.150;17.142;2022-12-07T16:13:55;7.30;83.70
12309;DHT22;6217;48.150;17.142;2022-12-07T16:18:00;7.30;83.00
12309;DHT22;6217;48.150;17.142;2022-12-07T16:22:06;7.30;83.00
12309;DHT22;6217;48.150;17.142;2022-12-07T16:26:18;7.30;83.10
12309;DHT22;6217;48.150;17.142;2022-12-07T16:30:24;7.20;83.70
12309;DHT22;6217;48.150;17.142;2022-12-07T16:34:31;7.20;83.50
12309;DHT22;6217;48.150;17.142;2022-12-07T16:38:37;7.30;83.40
12309;DHT22;6217;48.150;17.142;2022-12-07T16:42:43;7.30;83.30
12309;DHT22;6217;48.150;17.142;2022-12-07T16:46:49;7.40;83.20
12309;DHT22;6217;48.150;17.142;2022-12-07T16:50:55;7.50;83.20
12309;DHT22;6217;48.150;17.142;2022-12-07T16:55:01;7.50;83.10
12309;DHT22;6217;48.150;17.142;2022-12-07T16:59:07;7.50;83.00
12309;DHT22;6217;48.150;17.142;2022-12-07T17:03:13;7.50;83.00
12309;DHT22;6217;48.150;17.142;2022-12-07T17:07:18;7.50;82.90
12309;DHT22;6217;48.150;17.142;2022-12-07T17:11:27;7.50;82.80
12309;DHT22;6217;48.150;17.142;2022-12-07T17:15:33;7.50;83.20
12309;DHT22;6217;48.150;17.142;2022-12-07T17:19:39;7.50;83.20
12309;DHT22;6217;48.150;17.142;2022-12-07T17:23:46;7.60;83.20
12309;DHT22;6217;48.150;17.142;2022-12-07T17:27:52;7.70;83.20
12309;DHT22;6217;48.150;17.142;2022-12-07T17:31:58;7.60;83.10
12309;DHT22;6217;48.150;17.142;2022-12-07T17:36:18;7.50;83.00
12309;DHT22;6217;48.150;17.142;2022-12-07T17:40:24;7.60;83.20
12309;DHT22;6217;48.150;17.142;2022-12-07T17:44:30;7.50;83.20
12309;DHT22;6217;48.150;17.142;2022-12-07T17:48:36;7.50;83.20
12309;DHT22;6217;48.150;17.142;2022-12-07T17:52:42;7.50;83.30
12309;DHT22;6217;48.150;17.142;2022-12-07T17:57:07;7.50;83.40
12309;DHT22;6217;48.150;17.142;2022-12-07T18:01:13;7.50;83.20
12309;DHT22;6217;48.150;17.142;2022-12-07T18:05:18;7.50;83.20
12309;DHT22;6217;48.150;17.142;2022-12-07T18:09:24;7.50;83.20
12309;DHT22;6217;48.150;17.142;2022-12-07T18:13:32;7.60;83.20
12309;DHT22;6217;48.150;17.142;2022-12-07T18:17:40;7.50;83.00
12309;DHT22;6217;48.150;17.142;2022-12-07T18:21:47;7.40;83.00
12309;DHT22;6217;48.150;17.142;2022-12-07T18:25:53;7.40;83.10
12309;DHT22;6217;48.150;17.142;2022-12-07T18:29:58;7.30;83.10
12309;DHT22;6217;48.150;17.142;2022-12-07T18:34:06;7.30;83.20
12309;DHT22;6217;48.150;17.142;2022-12-07T18:38:17;7.20;83.20
12309;DHT22;6217;48.150;17.142;2022-12-07T18:42:23;7.20;83.10
12309;DHT22;6217;48.150;17.142;2022-12-07T18:46:29;7.20;83.20
12309;DHT22;6217;48.150;17.142;2022-12-07T18:50:35;7.20;83.40
12309;DHT22;6217;48.150;17.142;2022-12-07T18:54:42;7.30;83.20
12309;DHT22;6217;48.150;17.142;2022-12-07T18:58:53;7.30;83.00
12309;DHT22;6217;48.150;17.142;2022-12-07T19:03:18;7.30;82.90
12309;DHT22;6217;48.150;17.142;2022-12-07T19:07:23;7.20;82.50
12309;DHT22;6217;48.150;17.142;2022-12-07T19:11:31;7.20;82.70
12309;DHT22;6217;48.150;17.142;2022-12-07T19:15:55;7.20;82.60
12309;DHT22;6217;48.150;17.142;2022-12-07T19:20:01;7.20;82.80
12309;DHT22;6217;48.150;17.142;2022-12-07T19:24:08;7.30;82.70
12309;DHT22;6217;48.150;17.142;2022-12-07T19:28:14;7.20;82.60
12309;DHT22;6217;48.150;17.142;2022-12-07T19:32:20;7.10;82.70
12309;DHT22;6217;48.150;17.142;2022-12-07T19:36:27;7.20;82.70
12309;DHT22;6217;48.150;17.142;2022-12-07T19:40:33;7.20;82.60
12309;DHT22;6217;48.150;17.142;2022-12-07T19:44:39;7.20;82.50
12309;DHT22;6217;48.150;17.142;2022-12-07T19:48:44;7.20;82.60
12309;DHT22;6217;48.150;17.142;2022-12-07T19:52:50;7.20;82.70
12309;DHT22;6217;48.150;17.142;2022-12-07T19:56:57;7.20;82.60
12309;DHT22;6217;48.150;17.142;2022-12-07T20:01:06;7.20;82.80
12309;DHT22;6217;48.150;17.142;2022-12-07T20:05:12;7.30;82.70
12309;DHT22;6217;48.150;17.142;2022-12-07T20:09:19;7.30;82.70
12309;DHT22;6217;48.150;17.142;2022-12-07T20:13:24;7.30;82.50
12309;DHT22;6217;48.150;17.142;2022-12-07T20:17:36;7.40;82.40
12309;DHT22;6217;48.150;17.142;2022-12-07T20:21:42;7.40;82.20
12309;DHT22;6217;48.150;17.142;2022-12-07T20:25:48;7.40;82.20
12309;DHT22;6217;48.150;17.142;2022-12-07T20:29:54;7.30;82.20
12309;DHT22;6217;48.150;17.142;2022-12-07T20:34:00;7.40;82.10
12309;DHT22;6217;48.150;17.142;2022-12-07T20:38:08;7.30;82.30
12309;DHT22;6217;48.150;17.142;2022-12-07T20:42:15;7.20;82.20
12309;DHT22;6217;48.150;17.142;2022-12-07T20:46:40;7.30;82.40
12309;DHT22;6217;48.150;17.142;2022-12-07T20:50:46;7.30;82.20
12309;DHT22;6217;48.150;17.142;2022-12-07T20:54:51;7.30;82.10
12309;DHT22;6217;48.150;17.142;2022-12-07T20:59:00;7.30;82.10
12309;DHT22;6217;48.150;17.142;2022-12-07T21:03:06;7.30;81.70
12309;DHT22;6217;48.150;17.142;2022-12-07T21:07:11;7.30;81.70
12309;DHT22;6217;48.150;17.142;2022-12-07T21:11:18;7.20;81.80
12309;DHT22;6217;48.150;17.142;2022-12-07T21:15:24;7.30;81.70
12309;DHT22;6217;48.150;17.142;2022-12-07T21:19:30;7.30;81.70
12309;DHT22;6217;48.150;17.142;2022-12-07T21:23:36;7.30;81.30
12309;DHT22;6217;48.150;17.142;2022-12-07T21:27:42;7.20;81.70
12309;DHT22;6217;48.150;17.142;2022-12-07T21:31:48;7.10;82.10
12309;DHT22;6217;48.150;17.142;2022-12-07T21:35:54;7.00;82.20
12309;DHT22;6217;48.150;17.142;2022-12-07T21:39:59;6.90;82.40
12309;DHT22;6217;48.150;17.142;2022-12-07T21:44:07;6.80;82.70
12309;DHT22;6217;48.150;17.142;2022-12-07T21:48:14;6.80;82.70
12309;DHT22;6217;48.150;17.142;2022-12-07T21:52:20;6.80;82.50
12309;DHT22;6217;48.150;17.142;2022-12-07T21:56:31;6.80;82.50
12309;DHT22;6217;48.150;17.142;2022-12-07T22:00:39;6.80;82.60
12309;DHT22;6217;48.150;17.142;2022-12-07T22:04:44;6.80;82.60
12309;DHT22;6217;48.150;17.142;2022-12-07T22:08:52;6.80;82.50
12309;DHT22;6217;48.150;17.142;2022-12-07T22:12:58;6.70;82.30
12309;DHT22;6217;48.150;17.142;2022-12-07T22:17:04;6.60;82.50
12309;DHT22;6217;48.150;17.142;2022-12-07T22:21:10;6.60;82.60
12309;DHT22;6217;48.150;17.142;2022-12-07T22:25:16;6.60;82.70
12309;DHT22;6217;48.150;17.142;2022-12-07T22:29:22;6.60;82.40
12309;DHT22;6217;48.150;17.142;2022-12-07T22:33:29;6.60;82.30
12309;DHT22;6217;48.150;17.142;2022-12-07T22:37:35;6.60;82.30
12309;DHT22;6217;48.150;17.142;2022-12-07T22:41:41;6.50;82.50
12309;DHT22;6217;48.150;17.142;2022-12-07T22:45:56;6.60;82.70
12309;DHT22;6217;48.150;17.142;2022-12-07T22:50:03;6.60;82.40
12309;DHT22;6217;48.150;17.142;2022-12-07T22:54:14;6.60;82.30
12309;DHT22;6217;48.150;17.142;2022-12-07T22:58:22;6.60;82.40
12309;DHT22;6217;48.150;17.142;2022-12-07T23:02:31;6.60;82.40
12309;DHT22;6217;48.150;17.142;2022-12-07T23:06:37;6.50;82.30
12309;DHT22;6217;48.150;17.142;2022-12-07T23:10:45;6.40;82.70
12309;DHT22;6217;48.150;17.142;2022-12-07T23:14:51;6.50;82.70
12309;DHT22;6217;48.150;17.142;2022-12-07T23:18:59;6.60;82.60
12309;DHT22;6217;48.150;17.142;2022-12-07T23:23:10;6.50;82.20
12309;DHT22;6217;48.150;17.142;2022-12-07T23:27:16;6.40;82.50
12309;DHT22;6217;48.150;17.142;2022-12-07T23:31:21;6.40;82.60
12309;DHT22;6217;48.150;17.142;2022-12-07T23:35:30;6.40;82.70
12309;DHT22;6217;48.150;17.142;2022-12-07T23:39:36;6.40;82.60
12309;DHT22;6217;48.150;17.142;2022-12-07T23:43:43;6.50;82.50
12309;DHT22;6217;48.150;17.142;2022-12-07T23:47:49;6.50;82.60
12309;DHT22;6217;48.150;17.142;2022-12-07T23:51:55;6.40;82.80
12309;DHT22;6217;48.150;17.142;2022-12-07T23:56:01;6.40;83.20
